sensor_id;sensor_type;location;lat;lon;timestamp;P1;durP1;ratioP1;P2;durP2;ratioP2
4885;SDS011;2457;51.788;6.136;2022-09-03T00:00:46;3.67;;;1.33;;
4885;SDS011;2457;51.788;6.136;2022-09-03T00:08:37;8.13;;;2.07;;
4885;SDS011;2457;51.788;6.136;2022-09-03T00:11:18;4.50;;;1.40;;
4885;SDS011;2457;51.788;6.136;2022-09-03T00:13:52;4.13;;;1.67;;
4885;SDS011;2457;51.788;6.136;2022-09-03T00:16:19;6.83;;;2.10;;
4885;SDS011;2457;51.788;6.136;2022-09-03T00:18:54;6.00;;;1.40;;
4885;SDS011;2457;51.788;6.136;2022-09-03T00:21:17;3.47;;;1.40;;
4885;SDS011;2457;51.788;6.136;2022-09-03T00:23:45;3.10;;;1.50;;
4885;SDS011;2457;51.788;6.136;2022-09-03T00:26:21;6.63;;;1.50;;
4885;SDS011;2457;51.788;6.136;2022-09-03T00:31:34;3.83;;;1.37;;
4885;SDS011;2457;51.788;6.136;2022-09-03T00:33:55;4.23;;;1.60;;
4885;SDS011;2457;51.788;6.136;2022-09-03T00:36:34;4.30;;;1.57;;
4885;SDS011;2457;51.788;6.136;2022-09-03T00:39:01;3.90;;;1.70;;
4885;SDS011;2457;51.788;6.136;2022-09-03T00:41:32;4.13;;;1.70;;
4885;SDS011;2457;51.788;6.136;2022-09-03T00:44:19;4.10;;;1.60;;
4885;SDS011;2457;51.788;6.136;2022-09-03T00:46:46;10.03;;;2.03;;
4885;SDS011;2457;51.788;6.136;2022-09-03T00:49:25;12.13;;;2.03;;
4885;SDS011;2457;51.788;6.136;2022-09-03T00:57:13;7.23;;;1.67;;
4885;SDS011;2457;51.788;6.136;2022-09-03T01:02:33;4.17;;;1.73;;
4885;SDS011;2457;51.788;6.136;2022-09-03T01:05:03;5.20;;;1.60;;
4885;SDS011;2457;51.788;6.136;2022-09-03T01:07:45;5.77;;;1.93;;
4885;SDS011;2457;51.788;6.136;2022-09-03T01:10:29;3.23;;;1.20;;
4885;SDS011;2457;51.788;6.136;2022-09-03T01:13:10;7.20;;;1.77;;
4885;SDS011;2457;51.788;6.136;2022-09-03T01:15:42;3.80;;;1.60;;
4885;SDS011;2457;51.788;6.136;2022-09-03T01:26:05;3.10;;;1.40;;
4885;SDS011;2457;51.788;6.136;2022-09-03T01:31:28;7.53;;;1.70;;
4885;SDS011;2457;51.788;6.136;2022-09-03T01:33:37;5.40;;;1.27;;
4885;SDS011;2457;51.788;6.136;2022-09-03T01:38:42;4.60;;;2.10;;
4885;SDS011;2457;51.788;6.136;2022-09-03T01:44:01;7.00;;;1.70;;
4885;SDS011;2457;51.788;6.136;2022-09-03T01:46:31;4.73;;;1.60;;
4885;SDS011;2457;51.788;6.136;2022-09-03T01:49:05;5.17;;;1.90;;
4885;SDS011;2457;51.788;6.136;2022-09-03T01:51:32;4.63;;;1.40;;
4885;SDS011;2457;51.788;6.136;2022-09-03T01:59:40;3.10;;;1.30;;
4885;SDS011;2457;51.788;6.136;2022-09-03T02:01:58;3.40;;;1.57;;
4885;SDS011;2457;51.788;6.136;2022-09-03T02:04:27;6.00;;;2.00;;
4885;SDS011;2457;51.788;6.136;2022-09-03T02:06:55;4.30;;;1.40;;
4885;SDS011;2457;51.788;6.136;2022-09-03T02:09:23;3.13;;;1.20;;
4885;SDS011;2457;51.788;6.136;2022-09-03T02:11:59;5.97;;;1.60;;
4885;SDS011;2457;51.788;6.136;2022-09-03T02:14:26;5.90;;;1.40;;
4885;SDS011;2457;51.788;6.136;2022-09-03T02:16:55;6.10;;;1.90;;
4885;SDS011;2457;51.788;6.136;2022-09-03T02:19:25;5.00;;;1.57;;
4885;SDS011;2457;51.788;6.136;2022-09-03T02:21:52;3.17;;;1.30;;
4885;SDS011;2457;51.788;6.136;2022-09-03T02:24:20;3.83;;;1.70;;
4885;SDS011;2457;51.788;6.136;2022-09-03T02:26:47;3.17;;;1.50;;
4885;SDS011;2457;51.788;6.136;2022-09-03T02:29:15;4.50;;;1.53;;
4885;SDS011;2457;51.788;6.136;2022-09-03T02:31:43;6.97;;;1.60;;
4885;SDS011;2457;51.788;6.136;2022-09-03T02:34:11;3.27;;;1.53;;
4885;SDS011;2457;51.788;6.136;2022-09-03T02:36:46;4.47;;;1.90;;
4885;SDS011;2457;51.788;6.136;2022-09-03T02:39:11;3.70;;;1.50;;
4885;SDS011;2457;51.788;6.136;2022-09-03T02:41:39;5.70;;;2.40;;
4885;SDS011;2457;51.788;6.136;2022-09-03T02:44:19;3.40;;;1.80;;
4885;SDS011;2457;51.788;6.136;2022-09-03T02:47:02;10.00;;;1.70;;
4885;SDS011;2457;51.788;6.136;2022-09-03T02:49:29;4.87;;;1.93;;
4885;SDS011;2457;51.788;6.136;2022-09-03T02:51:57;5.33;;;1.40;;
4885;SDS011;2457;51.788;6.136;2022-09-03T02:54:30;3.80;;;1.60;;
4885;SDS011;2457;51.788;6.136;2022-09-03T02:56:58;3.60;;;1.67;;
4885;SDS011;2457;51.788;6.136;2022-09-03T02:59:25;5.10;;;1.50;;
4885;SDS011;2457;51.788;6.136;2022-09-03T03:01:56;3.30;;;1.50;;
4885;SDS011;2457;51.788;6.136;2022-09-03T03:04:23;3.90;;;1.43;;
4885;SDS011;2457;51.788;6.136;2022-09-03T03:06:50;5.43;;;1.60;;
4885;SDS011;2457;51.788;6.136;2022-09-03T03:09:18;3.30;;;1.53;;
4885;SDS011;2457;51.788;6.136;2022-09-03T03:11:45;5.63;;;1.97;;
4885;SDS011;2457;51.788;6.136;2022-09-03T03:14:14;4.87;;;2.03;;
4885;SDS011;2457;51.788;6.136;2022-09-03T03:16:41;3.83;;;1.53;;
4885;SDS011;2457;51.788;6.136;2022-09-03T03:19:08;3.87;;;1.60;;
4885;SDS011;2457;51.788;6.136;2022-09-03T03:21:35;5.43;;;1.50;;
4885;SDS011;2457;51.788;6.136;2022-09-03T03:24:03;3.50;;;1.50;;
4885;SDS011;2457;51.788;6.136;2022-09-03T03:26:30;4.83;;;1.60;;
4885;SDS011;2457;51.788;6.136;2022-09-03T03:28:58;5.80;;;1.53;;
4885;SDS011;2457;51.788;6.136;2022-09-03T03:31:26;3.30;;;1.40;;
4885;SDS011;2457;51.788;6.136;2022-09-03T03:33:54;4.47;;;1.60;;
4885;SDS011;2457;51.788;6.136;2022-09-03T03:36:23;3.33;;;1.47;;
4885;SDS011;2457;51.788;6.136;2022-09-03T03:38:54;6.27;;;1.90;;
4885;SDS011;2457;51.788;6.136;2022-09-03T03:41:26;3.80;;;1.57;;
4885;SDS011;2457;51.788;6.136;2022-09-03T03:43:54;5.70;;;1.60;;
4885;SDS011;2457;51.788;6.136;2022-09-03T03:46:22;5.53;;;1.70;;
4885;SDS011;2457;51.788;6.136;2022-09-03T03:48:50;4.87;;;1.50;;
4885;SDS011;2457;51.788;6.136;2022-09-03T03:51:18;4.40;;;1.60;;
4885;SDS011;2457;51.788;6.136;2022-09-03T03:53:45;4.30;;;1.70;;
4885;SDS011;2457;51.788;6.136;2022-09-03T03:56:14;3.53;;;1.37;;
4885;SDS011;2457;51.788;6.136;2022-09-03T03:58:42;8.03;;;1.43;;
4885;SDS011;2457;51.788;6.136;2022-09-03T04:01:10;3.80;;;1.67;;
4885;SDS011;2457;51.788;6.136;2022-09-03T04:03:38;3.30;;;1.33;;
4885;SDS011;2457;51.788;6.136;2022-09-03T04:06:05;6.73;;;1.60;;
4885;SDS011;2457;51.788;6.136;2022-09-03T04:08:38;3.10;;;1.27;;
4885;SDS011;2457;51.788;6.136;2022-09-03T04:11:02;4.30;;;1.80;;
4885;SDS011;2457;51.788;6.136;2022-09-03T04:13:33;5.37;;;1.60;;
4885;SDS011;2457;51.788;6.136;2022-09-03T04:18:30;3.60;;;1.40;;
4885;SDS011;2457;51.788;6.136;2022-09-03T04:20:59;4.43;;;1.60;;
4885;SDS011;2457;51.788;6.136;2022-09-03T04:23:27;4.30;;;1.60;;
4885;SDS011;2457;51.788;6.136;2022-09-03T04:25:55;3.50;;;1.37;;
4885;SDS011;2457;51.788;6.136;2022-09-03T04:28:22;4.57;;;1.60;;
4885;SDS011;2457;51.788;6.136;2022-09-03T04:30:49;4.17;;;1.30;;
4885;SDS011;2457;51.788;6.136;2022-09-03T04:33:17;5.73;;;1.50;;
4885;SDS011;2457;51.788;6.136;2022-09-03T04:35:44;3.70;;;1.50;;
4885;SDS011;2457;51.788;6.136;2022-09-03T04:38:11;3.50;;;1.40;;
4885;SDS011;2457;51.788;6.136;2022-09-03T04:40:38;3.43;;;1.67;;
4885;SDS011;2457;51.788;6.136;2022-09-03T04:43:06;4.47;;;1.57;;
4885;SDS011;2457;51.788;6.136;2022-09-03T04:45:33;4.70;;;1.50;;
4885;SDS011;2457;51.788;6.136;2022-09-03T04:48:01;4.13;;;1.40;;
4885;SDS011;2457;51.788;6.136;2022-09-03T04:50:28;3.57;;;1.57;;
4885;SDS011;2457;51.788;6.136;2022-09-03T04:52:59;3.53;;;1.50;;
4885;SDS011;2457;51.788;6.136;2022-09-03T04:55:28;4.87;;;1.80;;
4885;SDS011;2457;51.788;6.136;2022-09-03T04:57:57;4.30;;;1.60;;
4885;SDS011;2457;51.788;6.136;2022-09-03T05:00:24;11.30;;;1.70;;
4885;SDS011;2457;51.788;6.136;2022-09-03T05:02:52;5.63;;;2.10;;
4885;SDS011;2457;51.788;6.136;2022-09-03T05:05:19;3.67;;;1.60;;
4885;SDS011;2457;51.788;6.136;2022-09-03T05:07:47;10.57;;;1.60;;
4885;SDS011;2457;51.788;6.136;2022-09-03T05:10:14;3.50;;;1.40;;
4885;SDS011;2457;51.788;6.136;2022-09-03T05:12:43;4.20;;;1.60;;
4885;SDS011;2457;51.788;6.136;2022-09-03T05:15:10;7.83;;;1.60;;
4885;SDS011;2457;51.788;6.136;2022-09-03T05:17:38;4.10;;;1.47;;
4885;SDS011;2457;51.788;6.136;2022-09-03T05:20:05;4.13;;;1.60;;
4885;SDS011;2457;51.788;6.136;2022-09-03T05:22:35;5.43;;;1.40;;
4885;SDS011;2457;51.788;6.136;2022-09-03T05:25:02;5.17;;;1.67;;
4885;SDS011;2457;51.788;6.136;2022-09-03T05:27:30;3.10;;;1.40;;
4885;SDS011;2457;51.788;6.136;2022-09-03T05:29:57;4.40;;;1.70;;
4885;SDS011;2457;51.788;6.136;2022-09-03T05:32:24;3.70;;;1.43;;
4885;SDS011;2457;51.788;6.136;2022-09-03T05:34:53;5.00;;;1.60;;
4885;SDS011;2457;51.788;6.136;2022-09-03T05:37:21;3.43;;;1.27;;
4885;SDS011;2457;51.788;6.136;2022-09-03T05:39:48;6.17;;;1.90;;
4885;SDS011;2457;51.788;6.136;2022-09-03T05:42:16;6.53;;;1.47;;
4885;SDS011;2457;51.788;6.136;2022-09-03T05:44:43;5.60;;;1.90;;
4885;SDS011;2457;51.788;6.136;2022-09-03T05:47:10;3.13;;;1.40;;
4885;SDS011;2457;51.788;6.136;2022-09-03T05:49:37;5.27;;;1.53;;
4885;SDS011;2457;51.788;6.136;2022-09-03T05:52:05;9.80;;;1.67;;
4885;SDS011;2457;51.788;6.136;2022-09-03T05:54:32;4.50;;;1.53;;
4885;SDS011;2457;51.788;6.136;2022-09-03T05:56:59;4.67;;;1.83;;
4885;SDS011;2457;51.788;6.136;2022-09-03T05:59:27;8.00;;;1.90;;
4885;SDS011;2457;51.788;6.136;2022-09-03T06:01:54;3.57;;;1.40;;
4885;SDS011;2457;51.788;6.136;2022-09-03T06:04:21;3.53;;;1.57;;
4885;SDS011;2457;51.788;6.136;2022-09-03T06:06:48;6.13;;;1.63;;
4885;SDS011;2457;51.788;6.136;2022-09-03T06:09:17;5.57;;;1.23;;
4885;SDS011;2457;51.788;6.136;2022-09-03T06:11:45;5.77;;;1.60;;
4885;SDS011;2457;51.788;6.136;2022-09-03T06:14:13;7.37;;;1.60;;
4885;SDS011;2457;51.788;6.136;2022-09-03T06:16:45;3.57;;;1.60;;
4885;SDS011;2457;51.788;6.136;2022-09-03T06:19:09;2.90;;;1.20;;
4885;SDS011;2457;51.788;6.136;2022-09-03T06:21:39;3.40;;;1.60;;
4885;SDS011;2457;51.788;6.136;2022-09-03T06:24:08;5.03;;;1.80;;
4885;SDS011;2457;51.788;6.136;2022-09-03T06:26:37;6.00;;;1.57;;
4885;SDS011;2457;51.788;6.136;2022-09-03T06:29:05;3.73;;;1.73;;
4885;SDS011;2457;51.788;6.136;2022-09-03T06:31:33;6.13;;;1.40;;
4885;SDS011;2457;51.788;6.136;2022-09-03T06:34:00;5.13;;;1.63;;
4885;SDS011;2457;51.788;6.136;2022-09-03T06:36:28;9.53;;;1.73;;
4885;SDS011;2457;51.788;6.136;2022-09-03T06:38:55;3.63;;;1.70;;
4885;SDS011;2457;51.788;6.136;2022-09-03T06:41:25;5.37;;;1.40;;
4885;SDS011;2457;51.788;6.136;2022-09-03T06:43:59;3.40;;;1.33;;
4885;SDS011;2457;51.788;6.136;2022-09-03T06:46:30;5.90;;;1.43;;
4885;SDS011;2457;51.788;6.136;2022-09-03T06:48:58;3.40;;;1.60;;
4885;SDS011;2457;51.788;6.136;2022-09-03T06:51:26;6.13;;;1.90;;
4885;SDS011;2457;51.788;6.136;2022-09-03T06:53:57;7.50;;;1.23;;
4885;SDS011;2457;51.788;6.136;2022-09-03T06:56:23;20.23;;;2.20;;
4885;SDS011;2457;51.788;6.136;2022-09-03T06:58:53;3.30;;;1.23;;
4885;SDS011;2457;51.788;6.136;2022-09-03T07:01:21;4.87;;;1.70;;
4885;SDS011;2457;51.788;6.136;2022-09-03T07:03:51;4.90;;;1.50;;
4885;SDS011;2457;51.788;6.136;2022-09-03T07:06:19;3.00;;;1.40;;
4885;SDS011;2457;51.788;6.136;2022-09-03T07:08:46;6.77;;;1.50;;
4885;SDS011;2457;51.788;6.136;2022-09-03T07:11:15;11.77;;;1.43;;
4885;SDS011;2457;51.788;6.136;2022-09-03T07:13:45;4.50;;;1.30;;
4885;SDS011;2457;51.788;6.136;2022-09-03T07:16:14;4.10;;;1.40;;
4885;SDS011;2457;51.788;6.136;2022-09-03T07:18:42;11.63;;;1.90;;
4885;SDS011;2457;51.788;6.136;2022-09-03T07:21:10;3.53;;;1.30;;
4885;SDS011;2457;51.788;6.136;2022-09-03T07:23:38;5.83;;;1.50;;
4885;SDS011;2457;51.788;6.136;2022-09-03T07:26:06;5.10;;;1.60;;
4885;SDS011;2457;51.788;6.136;2022-09-03T07:28:35;3.20;;;1.40;;
4885;SDS011;2457;51.788;6.136;2022-09-03T07:31:03;5.80;;;1.57;;
4885;SDS011;2457;51.788;6.136;2022-09-03T07:33:31;4.60;;;1.40;;
4885;SDS011;2457;51.788;6.136;2022-09-03T07:36:11;10.73;;;1.30;;
4885;SDS011;2457;51.788;6.136;2022-09-03T07:38:34;3.87;;;1.30;;
4885;SDS011;2457;51.788;6.136;2022-09-03T07:41:03;4.87;;;1.40;;
4885;SDS011;2457;51.788;6.136;2022-09-03T07:43:34;7.50;;;1.77;;
4885;SDS011;2457;51.788;6.136;2022-09-03T07:46:02;6.43;;;1.40;;
4885;SDS011;2457;51.788;6.136;2022-09-03T07:48:29;5.80;;;1.40;;
4885;SDS011;2457;51.788;6.136;2022-09-03T07:51:01;2.90;;;1.23;;
4885;SDS011;2457;51.788;6.136;2022-09-03T07:53:27;3.13;;;1.10;;
4885;SDS011;2457;51.788;6.136;2022-09-03T07:56:08;4.20;;;1.20;;
4885;SDS011;2457;51.788;6.136;2022-09-03T07:58:32;3.20;;;1.23;;
4885;SDS011;2457;51.788;6.136;2022-09-03T08:01:07;7.70;;;1.90;;
4885;SDS011;2457;51.788;6.136;2022-09-03T08:03:35;4.20;;;1.40;;
4885;SDS011;2457;51.788;6.136;2022-09-03T08:06:03;7.90;;;1.70;;
4885;SDS011;2457;51.788;6.136;2022-09-03T08:08:32;3.30;;;1.50;;
4885;SDS011;2457;51.788;6.136;2022-09-03T08:11:05;3.00;;;1.20;;
4885;SDS011;2457;51.788;6.136;2022-09-03T08:13:42;6.73;;;1.73;;
4885;SDS011;2457;51.788;6.136;2022-09-03T08:16:06;3.33;;;1.30;;
4885;SDS011;2457;51.788;6.136;2022-09-03T08:18:34;2.80;;;1.10;;
4885;SDS011;2457;51.788;6.136;2022-09-03T08:21:09;4.30;;;1.23;;
4885;SDS011;2457;51.788;6.136;2022-09-03T08:23:41;4.63;;;1.30;;
4885;SDS011;2457;51.788;6.136;2022-09-03T08:26:05;3.97;;;1.17;;
4885;SDS011;2457;51.788;6.136;2022-09-03T08:28:33;5.07;;;1.30;;
4885;SDS011;2457;51.788;6.136;2022-09-03T08:31:10;7.53;;;1.33;;
4885;SDS011;2457;51.788;6.136;2022-09-03T08:33:38;3.47;;;1.30;;
4885;SDS011;2457;51.788;6.136;2022-09-03T08:36:08;9.40;;;1.60;;
4885;SDS011;2457;51.788;6.136;2022-09-03T08:38:38;3.47;;;1.30;;
4885;SDS011;2457;51.788;6.136;2022-09-03T08:41:27;4.23;;;1.50;;
4885;SDS011;2457;51.788;6.136;2022-09-03T08:46:45;4.20;;;1.40;;
4885;SDS011;2457;51.788;6.136;2022-09-03T08:49:08;3.47;;;1.03;;
4885;SDS011;2457;51.788;6.136;2022-09-03T08:51:36;7.20;;;1.80;;
4885;SDS011;2457;51.788;6.136;2022-09-03T08:54:06;4.70;;;1.70;;
4885;SDS011;2457;51.788;6.136;2022-09-03T08:56:34;3.63;;;1.40;;
4885;SDS011;2457;51.788;6.136;2022-09-03T08:59:03;4.07;;;1.47;;
4885;SDS011;2457;51.788;6.136;2022-09-03T09:01:35;4.83;;;1.50;;
4885;SDS011;2457;51.788;6.136;2022-09-03T09:22:42;7.10;;;1.30;;
4885;SDS011;2457;51.788;6.136;2022-09-03T09:25:13;4.80;;;1.33;;
4885;SDS011;2457;51.788;6.136;2022-09-03T09:28:00;5.20;;;1.50;;
4885;SDS011;2457;51.788;6.136;2022-09-03T09:30:12;4.80;;;1.50;;
4885;SDS011;2457;51.788;6.136;2022-09-03T09:32:42;3.73;;;1.23;;
4885;SDS011;2457;51.788;6.136;2022-09-03T09:35:10;3.63;;;1.40;;
4885;SDS011;2457;51.788;6.136;2022-09-03T09:37:55;4.43;;;1.30;;
4885;SDS011;2457;51.788;6.136;2022-09-03T09:41:06;7.50;;;1.63;;
4885;SDS011;2457;51.788;6.136;2022-09-03T09:43:01;5.10;;;1.70;;
4885;SDS011;2457;51.788;6.136;2022-09-03T09:45:21;3.90;;;1.37;;
4885;SDS011;2457;51.788;6.136;2022-09-03T09:47:49;3.70;;;1.60;;
4885;SDS011;2457;51.788;6.136;2022-09-03T09:50:18;3.13;;;1.10;;
4885;SDS011;2457;51.788;6.136;2022-09-03T09:52:47;7.40;;;1.53;;
4885;SDS011;2457;51.788;6.136;2022-09-03T09:55:16;5.67;;;1.40;;
4885;SDS011;2457;51.788;6.136;2022-09-03T09:57:43;18.93;;;1.97;;
4885;SDS011;2457;51.788;6.136;2022-09-03T10:00:14;3.77;;;1.30;;
4885;SDS011;2457;51.788;6.136;2022-09-03T10:02:50;4.67;;;1.63;;
4885;SDS011;2457;51.788;6.136;2022-09-03T10:05:24;4.23;;;1.70;;
4885;SDS011;2457;51.788;6.136;2022-09-03T10:07:52;3.40;;;1.23;;
4885;SDS011;2457;51.788;6.136;2022-09-03T10:10:18;5.33;;;1.83;;
4885;SDS011;2457;51.788;6.136;2022-09-03T10:12:48;3.80;;;1.30;;
4885;SDS011;2457;51.788;6.136;2022-09-03T10:15:21;10.47;;;1.60;;
4885;SDS011;2457;51.788;6.136;2022-09-03T10:23:14;6.30;;;1.50;;
4885;SDS011;2457;51.788;6.136;2022-09-03T10:25:47;3.60;;;1.30;;
4885;SDS011;2457;51.788;6.136;2022-09-03T10:28:14;3.67;;;1.37;;
4885;SDS011;2457;51.788;6.136;2022-09-03T10:30:47;5.00;;;1.67;;
4885;SDS011;2457;51.788;6.136;2022-09-03T10:33:15;5.80;;;1.90;;
4885;SDS011;2457;51.788;6.136;2022-09-03T10:35:51;4.50;;;1.83;;
4885;SDS011;2457;51.788;6.136;2022-09-03T10:38:26;5.03;;;1.40;;
4885;SDS011;2457;51.788;6.136;2022-09-03T10:41:00;4.30;;;1.90;;
4885;SDS011;2457;51.788;6.136;2022-09-03T10:51:35;8.53;;;1.80;;
4885;SDS011;2457;51.788;6.136;2022-09-03T10:56:44;5.33;;;1.53;;
4885;SDS011;2457;51.788;6.136;2022-09-03T10:59:23;8.00;;;1.63;;
4885;SDS011;2457;51.788;6.136;2022-09-03T11:01:57;5.50;;;1.63;;
4885;SDS011;2457;51.788;6.136;2022-09-03T11:06:53;5.67;;;1.50;;
4885;SDS011;2457;51.788;6.136;2022-09-03T11:09:26;8.43;;;2.03;;
4885;SDS011;2457;51.788;6.136;2022-09-03T11:11:54;3.27;;;1.40;;
4885;SDS011;2457;51.788;6.136;2022-09-03T11:14:26;3.43;;;1.47;;
4885;SDS011;2457;51.788;6.136;2022-09-03T11:16:52;5.93;;;1.53;;
4885;SDS011;2457;51.788;6.136;2022-09-03T11:19:22;7.87;;;1.80;;
4885;SDS011;2457;51.788;6.136;2022-09-03T11:21:48;4.73;;;2.10;;
4885;SDS011;2457;51.788;6.136;2022-09-03T11:24:22;9.73;;;1.63;;
4885;SDS011;2457;51.788;6.136;2022-09-03T11:26:47;5.47;;;1.50;;
4885;SDS011;2457;51.788;6.136;2022-09-03T11:29:19;7.20;;;2.10;;
4885;SDS011;2457;51.788;6.136;2022-09-03T11:32:01;6.50;;;1.90;;
4885;SDS011;2457;51.788;6.136;2022-09-03T11:34:32;3.20;;;1.40;;
4885;SDS011;2457;51.788;6.136;2022-09-03T11:37:14;9.00;;;1.87;;
4885;SDS011;2457;51.788;6.136;2022-09-03T11:42:04;5.37;;;1.47;;
4885;SDS011;2457;51.788;6.136;2022-09-03T11:44:35;5.13;;;1.83;;
4885;SDS011;2457;51.788;6.136;2022-09-03T11:47:12;4.23;;;1.67;;
4885;SDS011;2457;51.788;6.136;2022-09-03T11:49:32;3.47;;;1.60;;
4885;SDS011;2457;51.788;6.136;2022-09-03T11:52:00;5.27;;;1.73;;
4885;SDS011;2457;51.788;6.136;2022-09-03T11:54:30;7.00;;;1.60;;
4885;SDS011;2457;51.788;6.136;2022-09-03T11:57:06;4.53;;;1.67;;
4885;SDS011;2457;51.788;6.136;2022-09-03T11:59:35;3.90;;;1.70;;
4885;SDS011;2457;51.788;6.136;2022-09-03T12:12:19;5.27;;;1.90;;
4885;SDS011;2457;51.788;6.136;2022-09-03T12:14:48;4.27;;;1.63;;
4885;SDS011;2457;51.788;6.136;2022-09-03T12:17:31;5.73;;;1.60;;
4885;SDS011;2457;51.788;6.136;2022-09-03T12:19:58;5.63;;;1.40;;
4885;SDS011;2457;51.788;6.136;2022-09-03T12:22:26;10.13;;;1.50;;
4885;SDS011;2457;51.788;6.136;2022-09-03T12:25:07;6.73;;;1.63;;
4885;SDS011;2457;51.788;6.136;2022-09-03T12:27:35;4.17;;;1.50;;
4885;SDS011;2457;51.788;6.136;2022-09-03T12:30:03;4.50;;;1.63;;
4885;SDS011;2457;51.788;6.136;2022-09-03T12:32:33;3.63;;;1.27;;
4885;SDS011;2457;51.788;6.136;2022-09-03T12:35:15;7.00;;;1.87;;
4885;SDS011;2457;51.788;6.136;2022-09-03T12:37:40;16.47;;;2.13;;
4885;SDS011;2457;51.788;6.136;2022-09-03T12:40:15;4.17;;;1.53;;
4885;SDS011;2457;51.788;6.136;2022-09-03T12:42:37;4.30;;;1.53;;
4885;SDS011;2457;51.788;6.136;2022-09-03T12:45:05;3.83;;;1.63;;
4885;SDS011;2457;51.788;6.136;2022-09-03T12:47:37;5.73;;;1.70;;
4885;SDS011;2457;51.788;6.136;2022-09-03T12:50:04;3.60;;;1.57;;
4885;SDS011;2457;51.788;6.136;2022-09-03T12:52:35;3.70;;;1.30;;
4885;SDS011;2457;51.788;6.136;2022-09-03T12:55:20;7.00;;;1.70;;
4885;SDS011;2457;51.788;6.136;2022-09-03T12:57:51;3.80;;;1.23;;
4885;SDS011;2457;51.788;6.136;2022-09-03T13:00:15;3.67;;;1.70;;
4885;SDS011;2457;51.788;6.136;2022-09-03T13:05:19;3.97;;;1.47;;
4885;SDS011;2457;51.788;6.136;2022-09-03T13:07:44;3.93;;;1.50;;
4885;SDS011;2457;51.788;6.136;2022-09-03T13:10:21;5.60;;;1.57;;
4885;SDS011;2457;51.788;6.136;2022-09-03T13:12:42;14.23;;;1.80;;
4885;SDS011;2457;51.788;6.136;2022-09-03T13:15:15;4.23;;;1.93;;
4885;SDS011;2457;51.788;6.136;2022-09-03T13:22:57;5.20;;;1.50;;
4885;SDS011;2457;51.788;6.136;2022-09-03T13:25:32;3.80;;;1.40;;
4885;SDS011;2457;51.788;6.136;2022-09-03T13:33:33;3.37;;;1.40;;
4885;SDS011;2457;51.788;6.136;2022-09-03T13:36:13;3.43;;;1.50;;
4885;SDS011;2457;51.788;6.136;2022-09-03T13:44:02;4.67;;;1.80;;
4885;SDS011;2457;51.788;6.136;2022-09-03T13:46:32;3.30;;;1.53;;
4885;SDS011;2457;51.788;6.136;2022-09-03T13:48:58;3.93;;;1.63;;
4885;SDS011;2457;51.788;6.136;2022-09-03T13:51:46;15.53;;;2.87;;
4885;SDS011;2457;51.788;6.136;2022-09-03T13:54:22;4.17;;;2.07;;
4885;SDS011;2457;51.788;6.136;2022-09-03T13:59:28;5.93;;;1.80;;
4885;SDS011;2457;51.788;6.136;2022-09-03T14:04:23;7.90;;;1.87;;
4885;SDS011;2457;51.788;6.136;2022-09-03T14:07:02;7.13;;;1.77;;
4885;SDS011;2457;51.788;6.136;2022-09-03T14:12:03;4.23;;;1.87;;
4885;SDS011;2457;51.788;6.136;2022-09-03T14:14:37;5.40;;;1.70;;
4885;SDS011;2457;51.788;6.136;2022-09-03T14:17:14;4.07;;;1.57;;
4885;SDS011;2457;51.788;6.136;2022-09-03T14:19:45;4.60;;;1.60;;
4885;SDS011;2457;51.788;6.136;2022-09-03T14:22:21;7.33;;;1.50;;
4885;SDS011;2457;51.788;6.136;2022-09-03T14:24:52;4.70;;;1.60;;
4885;SDS011;2457;51.788;6.136;2022-09-03T14:27:24;3.77;;;1.53;;
4885;SDS011;2457;51.788;6.136;2022-09-03T14:30:39;9.13;;;1.90;;
4885;SDS011;2457;51.788;6.136;2022-09-03T14:32:26;5.07;;;1.33;;
4885;SDS011;2457;51.788;6.136;2022-09-03T14:35:04;3.63;;;1.40;;
4885;SDS011;2457;51.788;6.136;2022-09-03T14:37:37;4.87;;;1.73;;
4885;SDS011;2457;51.788;6.136;2022-09-03T14:42:40;3.53;;;1.43;;
4885;SDS011;2457;51.788;6.136;2022-09-03T14:47:46;5.17;;;1.60;;
4885;SDS011;2457;51.788;6.136;2022-09-03T14:52:51;5.87;;;1.80;;
4885;SDS011;2457;51.788;6.136;2022-09-03T14:55:30;4.47;;;1.73;;
4885;SDS011;2457;51.788;6.136;2022-09-03T15:05:49;3.55;;;1.40;;
4885;SDS011;2457;51.788;6.136;2022-09-03T15:10:58;3.53;;;1.50;;
4885;SDS011;2457;51.788;6.136;2022-09-03T15:18:36;5.23;;;1.67;;
4885;SDS011;2457;51.788;6.136;2022-09-03T15:21:03;7.33;;;1.77;;
4885;SDS011;2457;51.788;6.136;2022-09-03T15:28:51;9.33;;;1.77;;
4885;SDS011;2457;51.788;6.136;2022-09-03T15:31:20;3.30;;;1.40;;
4885;SDS011;2457;51.788;6.136;2022-09-03T15:36:23;6.10;;;1.70;;
4885;SDS011;2457;51.788;6.136;2022-09-03T15:38:56;6.23;;;2.17;;
4885;SDS011;2457;51.788;6.136;2022-09-03T15:41:27;8.43;;;1.87;;
4885;SDS011;2457;51.788;6.136;2022-09-03T15:43:56;6.40;;;1.80;;
4885;SDS011;2457;51.788;6.136;2022-09-03T15:46:30;5.87;;;2.20;;
4885;SDS011;2457;51.788;6.136;2022-09-03T15:49:03;3.57;;;1.70;;
4885;SDS011;2457;51.788;6.136;2022-09-03T15:51:35;3.73;;;1.63;;
4885;SDS011;2457;51.788;6.136;2022-09-03T15:54:15;3.33;;;1.60;;
4885;SDS011;2457;51.788;6.136;2022-09-03T15:56:51;4.70;;;1.70;;
4885;SDS011;2457;51.788;6.136;2022-09-03T15:59:25;3.90;;;1.43;;
4885;SDS011;2457;51.788;6.136;2022-09-03T16:01:56;3.43;;;1.40;;
4885;SDS011;2457;51.788;6.136;2022-09-03T16:04:26;3.50;;;1.80;;
4885;SDS011;2457;51.788;6.136;2022-09-03T16:09:50;16.20;;;1.87;;
4885;SDS011;2457;51.788;6.136;2022-09-03T16:15:06;11.53;;;1.50;;
4885;SDS011;2457;51.788;6.136;2022-09-03T16:17:38;6.30;;;1.90;;
4885;SDS011;2457;51.788;6.136;2022-09-03T16:25:25;3.93;;;1.70;;
4885;SDS011;2457;51.788;6.136;2022-09-03T16:27:54;5.20;;;1.70;;
4885;SDS011;2457;51.788;6.136;2022-09-03T16:30:28;4.30;;;1.87;;
4885;SDS011;2457;51.788;6.136;2022-09-03T16:38:15;4.67;;;1.80;;
4885;SDS011;2457;51.788;6.136;2022-09-03T16:43:20;3.80;;;1.53;;
4885;SDS011;2457;51.788;6.136;2022-09-03T16:48:38;4.03;;;1.57;;
4885;SDS011;2457;51.788;6.136;2022-09-03T16:51:15;3.60;;;1.60;;
4885;SDS011;2457;51.788;6.136;2022-09-03T16:56:13;5.97;;;1.57;;
4885;SDS011;2457;51.788;6.136;2022-09-03T17:01:23;4.13;;;1.70;;
4885;SDS011;2457;51.788;6.136;2022-09-03T17:11:38;7.03;;;1.90;;
4885;SDS011;2457;51.788;6.136;2022-09-03T17:14:11;7.13;;;1.97;;
4885;SDS011;2457;51.788;6.136;2022-09-03T17:16:41;5.20;;;1.83;;
4885;SDS011;2457;51.788;6.136;2022-09-03T17:19:12;4.10;;;1.87;;
4885;SDS011;2457;51.788;6.136;2022-09-03T17:21:41;4.73;;;1.67;;
4885;SDS011;2457;51.788;6.136;2022-09-03T17:37:50;7.77;;;2.30;;
4885;SDS011;2457;51.788;6.136;2022-09-03T17:40:21;5.20;;;1.80;;
4885;SDS011;2457;51.788;6.136;2022-09-03T17:48:12;4.33;;;1.83;;
4885;SDS011;2457;51.788;6.136;2022-09-03T17:53:27;4.53;;;2.03;;
4885;SDS011;2457;51.788;6.136;2022-09-03T17:58:28;6.60;;;2.53;;
4885;SDS011;2457;51.788;6.136;2022-09-03T18:01:03;10.77;;;2.47;;
4885;SDS011;2457;51.788;6.136;2022-09-03T18:03:51;8.97;;;2.43;;
4885;SDS011;2457;51.788;6.136;2022-09-03T18:06:07;11.73;;;2.53;;
4885;SDS011;2457;51.788;6.136;2022-09-03T18:11:22;8.67;;;2.23;;
4885;SDS011;2457;51.788;6.136;2022-09-03T18:13:53;5.77;;;2.23;;
4885;SDS011;2457;51.788;6.136;2022-09-03T18:16:28;5.40;;;2.10;;
4885;SDS011;2457;51.788;6.136;2022-09-03T18:19:07;6.70;;;2.17;;
4885;SDS011;2457;51.788;6.136;2022-09-03T18:21:25;4.40;;;2.17;;
4885;SDS011;2457;51.788;6.136;2022-09-03T18:27:07;7.63;;;2.63;;
4885;SDS011;2457;51.788;6.136;2022-09-03T18:30:02;4.87;;;2.30;;
4885;SDS011;2457;51.788;6.136;2022-09-03T18:32:47;5.73;;;1.83;;
4885;SDS011;2457;51.788;6.136;2022-09-03T18:35:33;4.77;;;2.03;;
4885;SDS011;2457;51.788;6.136;2022-09-03T18:38:26;8.80;;;2.50;;
4885;SDS011;2457;51.788;6.136;2022-09-03T18:41:12;5.37;;;2.40;;
4885;SDS011;2457;51.788;6.136;2022-09-03T18:43:57;5.90;;;2.10;;
4885;SDS011;2457;51.788;6.136;2022-09-03T18:46:58;10.30;;;2.50;;
4885;SDS011;2457;51.788;6.136;2022-09-03T18:50:05;7.70;;;2.80;;
4885;SDS011;2457;51.788;6.136;2022-09-03T18:52:52;15.33;;;3.17;;
4885;SDS011;2457;51.788;6.136;2022-09-03T19:01:35;8.47;;;2.63;;
4885;SDS011;2457;51.788;6.136;2022-09-03T19:07:20;12.33;;;2.93;;
4885;SDS011;2457;51.788;6.136;2022-09-03T19:10:01;14.53;;;3.80;;
4885;SDS011;2457;51.788;6.136;2022-09-03T19:13:02;15.87;;;3.93;;
4885;SDS011;2457;51.788;6.136;2022-09-03T19:15:58;9.30;;;3.93;;
4885;SDS011;2457;51.788;6.136;2022-09-03T19:21:47;12.00;;;5.63;;
4885;SDS011;2457;51.788;6.136;2022-09-03T19:24:29;12.87;;;6.47;;